sensor_id;sensor_type;location;lat;lon;timestamp;pressure;altitude;pressure_sealevel;temperature;humidity
64292;BME280;50628;51.008;13.658;2023-07-31T00:02:12;99449.94;;;17.01;100.00
64292;BME280;50628;51.008;13.658;2023-07-31T00:07:14;99445.03;;;16.98;100.00
64292;BME280;50628;51.008;13.658;2023-07-31T00:12:17;99439.09;;;16.96;100.00
64292;BME280;50628;51.008;13.658;2023-07-31T00:17:19;99432.22;;;16.95;100.00
64292;BME280;50628;51.008;13.658;2023-07-31T00:22:21;99437.63;;;17.01;100.00
64292;BME280;50628;51.008;13.658;2023-07-31T00:27:24;99431.19;;;17.04;100.00
64292;BME280;50628;51.008;13.658;2023-07-31T00:32:26;99433.22;;;16.94;100.00
64292;BME280;50628;51.008;13.658;2023-07-31T00:37:28;99427.13;;;16.93;100.00
64292;BME280;50628;51.008;13.658;2023-07-31T00:42:32;99418.34;;;16.78;100.00
64292;BME280;50628;51.008;13.658;2023-07-31T00:47:34;99413.94;;;16.62;100.00
64292;BME280;50628;51.008;13.658;2023-07-31T00:52:36;99415.16;;;16.51;100.00
64292;BME280;50628;51.008;13.658;2023-07-31T00:57:41;99413.03;;;16.47;100.00
64292;BME280;50628;51.008;13.658;2023-07-31T01:02:43;99406.97;;;16.46;100.00
64292;BME280;50628;51.008;13.658;2023-07-31T01:07:50;99410.63;;;16.29;100.00
64292;BME280;50628;51.008;13.658;2023-07-31T01:12:56;99405.09;;;16.15;100.00
64292;BME280;50628;51.008;13.658;2023-07-31T01:17:58;99396.91;;;16.10;100.00
64292;BME280;50628;51.008;13.658;2023-07-31T01:23:22;99398.06;;;16.08;100.00
64292;BME280;50628;51.008;13.658;2023-07-31T01:28:33;99397.38;;;16.06;100.00
64292;BME280;50628;51.008;13.658;2023-07-31T01:33:37;99399.19;;;15.97;100.00
64292;BME280;50628;51.008;13.658;2023-07-31T01:38:40;99397.06;;;16.00;100.00
64292;BME280;50628;51.008;13.658;2023-07-31T01:43:44;99392.97;;;15.98;100.00
64292;BME280;50628;51.008;13.658;2023-07-31T01:48:46;99380.47;;;16.00;100.00
64292;BME280;50628;51.008;13.658;2023-07-31T01:53:48;99382.78;;;15.95;100.00
64292;BME280;50628;51.008;13.658;2023-07-31T01:58:51;99376.22;;;15.99;100.00
64292;BME280;50628;51.008;13.658;2023-07-31T02:03:53;99376.38;;;16.06;100.00
64292;BME280;50628;51.008;13.658;2023-07-31T02:08:57;99376.19;;;16.07;100.00
64292;BME280;50628;51.008;13.658;2023-07-31T02:14:00;99365.50;;;16.17;100.00
64292;BME280;50628;51.008;13.658;2023-07-31T02:19:02;99358.44;;;16.17;100.00
64292;BME280;50628;51.008;13.658;2023-07-31T02:24:04;99367.47;;;16.23;100.00
64292;BME280;50628;51.008;13.658;2023-07-31T02:29:08;99366.63;;;16.31;100.00
64292;BME280;50628;51.008;13.658;2023-07-31T02:34:10;99360.41;;;16.23;100.00
64292;BME280;50628;51.008;13.658;2023-07-31T02:39:12;99356.00;;;16.16;100.00
64292;BME280;50628;51.008;13.658;2023-07-31T02:44:15;99359.09;;;16.19;100.00
64292;BME280;50628;51.008;13.658;2023-07-31T02:49:17;99353.38;;;16.16;100.00
64292;BME280;50628;51.008;13.658;2023-07-31T02:54:19;99350.25;;;16.12;100.00
64292;BME280;50628;51.008;13.658;2023-07-31T02:59:23;99360.94;;;16.02;100.00
64292;BME280;50628;51.008;13.658;2023-07-31T03:04:25;99365.38;;;16.02;100.00
64292;BME280;50628;51.008;13.658;2023-07-31T03:09:27;99369.47;;;16.05;100.00
64292;BME280;50628;51.008;13.658;2023-07-31T03:14:30;99372.09;;;16.05;100.00
64292;BME280;50628;51.008;13.658;2023-07-31T03:19:32;99379.81;;;16.06;100.00
64292;BME280;50628;51.008;13.658;2023-07-31T03:24:34;99373.91;;;16.04;100.00
64292;BME280;50628;51.008;13.658;2023-07-31T03:29:38;99376.31;;;16.22;100.00
64292;BME280;50628;51.008;13.658;2023-07-31T03:34:40;99391.56;;;16.35;100.00
64292;BME280;50628;51.008;13.658;2023-07-31T03:39:42;99406.56;;;16.18;100.00
64292;BME280;50628;51.008;13.658;2023-07-31T03:44:45;99391.34;;;15.89;100.00
64292;BME280;50628;51.008;13.658;2023-07-31T03:49:47;99405.75;;;15.68;100.00
64292;BME280;50628;51.008;13.658;2023-07-31T03:54:50;99405.59;;;15.62;100.00
64292;BME280;50628;51.008;13.658;2023-07-31T03:59:54;99401.66;;;15.49;100.00
64292;BME280;50628;51.008;13.658;2023-07-31T04:04:56;99401.00;;;15.39;100.00
64292;BME280;50628;51.008;13.658;2023-07-31T04:09:57;99396.22;;;15.26;100.00
64292;BME280;50628;51.008;13.658;2023-07-31T04:15:01;99397.03;;;15.19;100.00
64292;BME280;50628;51.008;13.658;2023-07-31T04:20:03;99395.56;;;15.08;100.00
64292;BME280;50628;51.008;13.658;2023-07-31T04:25:05;99383.88;;;14.94;100.00
64292;BME280;50628;51.008;13.658;2023-07-31T04:30:09;99385.03;;;14.91;100.00
64292;BME280;50628;51.008;13.658;2023-07-31T04:35:13;99374.53;;;14.83;100.00
64292;BME280;50628;51.008;13.658;2023-07-31T04:40:15;99377.00;;;14.85;100.00
64292;BME280;50628;51.008;13.658;2023-07-31T04:45:18;99368.34;;;14.92;100.00
64292;BME280;50628;51.008;13.658;2023-07-31T04:50:20;99363.09;;;14.92;100.00
64292;BME280;50628;51.008;13.658;2023-07-31T04:55:22;99368.81;;;14.96;100.00
64292;BME280;50628;51.008;13.658;2023-07-31T05:05:32;99367.53;;;15.17;100.00
64292;BME280;50628;51.008;13.658;2023-07-31T05:10:34;99353.13;;;15.21;100.00
64292;BME280;50628;51.008;13.658;2023-07-31T05:15:36;99362.31;;;15.33;100.00
64292;BME280;50628;51.008;13.658;2023-07-31T05:20:39;99342.63;;;15.37;100.00
64292;BME280;50628;51.008;13.658;2023-07-31T05:25:41;99342.00;;;15.43;100.00
64292;BME280;50628;51.008;13.658;2023-07-31T05:30:43;99340.69;;;15.47;100.00
64292;BME280;50628;51.008;13.658;2023-07-31T05:35:46;99334.13;;;15.51;100.00
64292;BME280;50628;51.008;13.658;2023-07-31T05:40:48;99339.03;;;15.63;100.00
64292;BME280;50628;51.008;13.658;2023-07-31T05:45:50;99338.25;;;15.70;100.00
64292;BME280;50628;51.008;13.658;2023-07-31T05:50:54;99328.38;;;15.81;100.00
64292;BME280;50628;51.008;13.658;2023-07-31T05:55:56;99341.63;;;15.87;100.00
64292;BME280;50628;51.008;13.658;2023-07-31T06:00:58;99340.78;;;15.95;100.00
64292;BME280;50628;51.008;13.658;2023-07-31T06:06:01;99321.06;;;16.07;100.00
64292;BME280;50628;51.008;13.658;2023-07-31T06:11:03;99319.41;;;16.14;100.00
64292;BME280;50628;51.008;13.658;2023-07-31T06:16:05;99329.25;;;16.20;100.00
64292;BME280;50628;51.008;13.658;2023-07-31T06:21:08;99327.88;;;16.33;100.00
64292;BME280;50628;51.008;13.658;2023-07-31T06:26:10;99327.88;;;16.33;100.00
64292;BME280;50628;51.008;13.658;2023-07-31T06:31:12;99321.75;;;16.49;100.00
64292;BME280;50628;51.008;13.658;2023-07-31T06:36:15;99322.03;;;16.54;100.00
64292;BME280;50628;51.008;13.658;2023-07-31T06:41:17;99307.34;;;16.67;100.00
64292;BME280;50628;51.008;13.658;2023-07-31T06:46:19;99309.81;;;16.69;100.00
64292;BME280;50628;51.008;13.658;2023-07-31T06:51:22;99297.44;;;16.78;100.00
64292;BME280;50628;51.008;13.658;2023-07-31T06:56:24;99304.94;;;16.89;100.00
64292;BME280;50628;51.008;13.658;2023-07-31T07:01:26;99301.16;;;16.92;100.00
64292;BME280;50628;51.008;13.658;2023-07-31T07:06:30;99305.16;;;17.02;100.00
64292;BME280;50628;51.008;13.658;2023-07-31T07:11:32;99297.16;;;17.19;100.00
64292;BME280;50628;51.008;13.658;2023-07-31T07:16:34;99303.91;;;17.36;100.00
64292;BME280;50628;51.008;13.658;2023-07-31T07:21:37;99308.66;;;17.56;100.00
64292;BME280;50628;51.008;13.658;2023-07-31T07:26:39;99302.16;;;17.81;100.00
64292;BME280;50628;51.008;13.658;2023-07-31T07:31:41;99295.00;;;17.90;100.00
64292;BME280;50628;51.008;13.658;2023-07-31T07:36:44;99294.53;;;18.01;100.00
64292;BME280;50628;51.008;13.658;2023-07-31T07:41:46;99288.72;;;18.06;100.00
64292;BME280;50628;51.008;13.658;2023-07-31T07:46:48;99286.75;;;18.08;100.00
64292;BME280;50628;51.008;13.658;2023-07-31T07:51:52;99285.13;;;18.07;100.00
64292;BME280;50628;51.008;13.658;2023-07-31T07:56:53;99294.34;;;18.17;100.00
64292;BME280;50628;51.008;13.658;2023-07-31T08:01:55;99305.28;;;18.51;100.00
64292;BME280;50628;51.008;13.658;2023-07-31T08:06:59;99287.19;;;18.84;100.00
64292;BME280;50628;51.008;13.658;2023-07-31T08:12:01;99291.34;;;18.93;100.00
64292;BME280;50628;51.008;13.658;2023-07-31T08:17:04;99284.84;;;19.17;100.00
64292;BME280;50628;51.008;13.658;2023-07-31T08:22:07;99288.28;;;19.39;100.00
64292;BME280;50628;51.008;13.658;2023-07-31T08:27:09;99302.91;;;19.42;100.00
64292;BME280;50628;51.008;13.658;2023-07-31T08:32:11;99301.47;;;19.39;100.00
64292;BME280;50628;51.008;13.658;2023-07-31T08:37:15;99294.41;;;19.18;100.00
64292;BME280;50628;51.008;13.658;2023-07-31T08:42:16;99300.31;;;19.20;100.00
64292;BME280;50628;51.008;13.658;2023-07-31T08:47:19;99312.25;;;19.16;100.00
64292;BME280;50628;51.008;13.658;2023-07-31T08:52:23;99298.41;;;19.08;100.00
64292;BME280;50628;51.008;13.658;2023-07-31T08:57:25;99291.72;;;19.12;100.00
64292;BME280;50628;51.008;13.658;2023-07-31T09:02:34;99289.84;;;19.06;100.00
64292;BME280;50628;51.008;13.658;2023-07-31T09:07:38;99288.47;;;18.88;100.00
64292;BME280;50628;51.008;13.658;2023-07-31T09:12:40;99284.88;;;18.96;100.00
64292;BME280;50628;51.008;13.658;2023-07-31T09:17:42;99284.00;;;18.89;100.00
64292;BME280;50628;51.008;13.658;2023-07-31T09:22:45;99277.63;;;18.98;100.00
64292;BME280;50628;51.008;13.658;2023-07-31T09:27:49;99285.31;;;18.99;100.00
64292;BME280;50628;51.008;13.658;2023-07-31T09:33:01;99271.81;;;19.09;100.00
64292;BME280;50628;51.008;13.658;2023-07-31T09:38:05;99264.84;;;19.23;100.00
64292;BME280;50628;51.008;13.658;2023-07-31T09:43:09;99274.53;;;19.22;100.00
64292;BME280;50628;51.008;13.658;2023-07-31T09:48:12;99264.63;;;19.24;100.00
64292;BME280;50628;51.008;13.658;2023-07-31T09:53:17;99259.25;;;19.39;100.00
64292;BME280;50628;51.008;13.658;2023-07-31T09:58:19;99269.09;;;19.52;100.00
64292;BME280;50628;51.008;13.658;2023-07-31T10:03:22;99253.47;;;19.57;100.00
64292;BME280;50628;51.008;13.658;2023-07-31T10:08:28;99244.91;;;19.49;100.00
64292;BME280;50628;51.008;13.658;2023-07-31T10:13:32;99258.97;;;19.56;100.00
64292;BME280;50628;51.008;13.658;2023-07-31T10:18:35;99251.66;;;19.58;100.00
64292;BME280;50628;51.008;13.658;2023-07-31T10:23:39;99224.50;;;19.64;100.00
64292;BME280;50628;51.008;13.658;2023-07-31T10:28:41;99224.97;;;19.74;100.00
64292;BME280;50628;51.008;13.658;2023-07-31T10:33:44;99224.63;;;19.91;100.00
64292;BME280;50628;51.008;13.658;2023-07-31T10:38:48;99214.31;;;20.02;100.00
64292;BME280;50628;51.008;13.658;2023-07-31T10:43:54;99210.75;;;20.30;100.00
64292;BME280;50628;51.008;13.658;2023-07-31T10:49:00;99208.13;;;20.37;100.00
64292;BME280;50628;51.008;13.658;2023-07-31T10:54:15;99196.13;;;20.41;100.00
64292;BME280;50628;51.008;13.658;2023-07-31T10:59:18;99188.41;;;20.46;100.00
64292;BME280;50628;51.008;13.658;2023-07-31T11:04:24;99193.72;;;20.52;100.00
64292;BME280;50628;51.008;13.658;2023-07-31T11:09:29;99207.91;;;20.38;100.00
64292;BME280;50628;51.008;13.658;2023-07-31T11:14:32;99192.47;;;20.48;100.00
64292;BME280;50628;51.008;13.658;2023-07-31T11:19:34;99191.81;;;20.20;100.00
64292;BME280;50628;51.008;13.658;2023-07-31T11:24:41;99192.56;;;19.94;100.00
64292;BME280;50628;51.008;13.658;2023-07-31T11:29:43;99188.34;;;20.13;100.00
64292;BME280;50628;51.008;13.658;2023-07-31T11:34:52;99183.34;;;20.44;100.00
64292;BME280;50628;51.008;13.658;2023-07-31T11:40:02;99169.16;;;20.85;100.00
64292;BME280;50628;51.008;13.658;2023-07-31T11:45:04;99159.13;;;21.27;100.00
64292;BME280;50628;51.008;13.658;2023-07-31T11:50:10;99161.56;;;21.42;100.00
64292;BME280;50628;51.008;13.658;2023-07-31T11:55:15;99150.59;;;21.83;100.00
64292;BME280;50628;51.008;13.658;2023-07-31T12:00:17;99154.31;;;21.76;100.00
64292;BME280;50628;51.008;13.658;2023-07-31T12:05:21;99133.66;;;21.85;100.00
64292;BME280;50628;51.008;13.658;2023-07-31T12:10:27;99127.44;;;22.11;100.00
64292;BME280;50628;51.008;13.658;2023-07-31T12:15:33;99129.34;;;22.35;100.00
64292;BME280;50628;51.008;13.658;2023-07-31T12:20:35;99125.25;;;22.58;100.00
64292;BME280;50628;51.008;13.658;2023-07-31T12:25:43;99130.84;;;22.50;95.80
64292;BME280;50628;51.008;13.658;2023-07-31T12:30:45;99099.25;;;22.92;93.33
64292;BME280;50628;51.008;13.658;2023-07-31T12:35:47;99097.97;;;23.38;88.06
64292;BME280;50628;51.008;13.658;2023-07-31T12:40:50;99105.94;;;23.19;84.92
64292;BME280;50628;51.008;13.658;2023-07-31T12:45:54;99094.50;;;23.00;82.88
64292;BME280;50628;51.008;13.658;2023-07-31T12:50:56;99073.88;;;22.77;82.09
64292;BME280;50628;51.008;13.658;2023-07-31T12:55:59;99074.13;;;22.76;82.02
64292;BME280;50628;51.008;13.658;2023-07-31T13:01:01;99069.50;;;22.64;81.37
64292;BME280;50628;51.008;13.658;2023-07-31T13:06:03;99052.00;;;22.63;82.71
64292;BME280;50628;51.008;13.658;2023-07-31T13:11:07;99050.84;;;22.53;85.79
64292;BME280;50628;51.008;13.658;2023-07-31T13:16:09;99045.38;;;22.47;85.05
64292;BME280;50628;51.008;13.658;2023-07-31T13:21:11;99051.78;;;22.40;83.75
64292;BME280;50628;51.008;13.658;2023-07-31T13:26:14;99048.47;;;22.44;83.89
64292;BME280;50628;51.008;13.658;2023-07-31T13:31:16;99040.72;;;22.68;82.07
64292;BME280;50628;51.008;13.658;2023-07-31T13:36:18;99046.09;;;22.80;79.90
64292;BME280;50628;51.008;13.658;2023-07-31T13:41:21;99020.13;;;23.07;80.49
64292;BME280;50628;51.008;13.658;2023-07-31T13:46:23;99021.00;;;23.19;76.76
64292;BME280;50628;51.008;13.658;2023-07-31T13:51:26;99018.34;;;23.49;75.03
64292;BME280;50628;51.008;13.658;2023-07-31T13:56:29;98998.06;;;23.97;71.54
64292;BME280;50628;51.008;13.658;2023-07-31T14:01:31;99003.19;;;24.46;69.99
64292;BME280;50628;51.008;13.658;2023-07-31T14:06:33;98997.94;;;23.92;71.74
64292;BME280;50628;51.008;13.658;2023-07-31T14:11:37;99002.34;;;23.68;72.62
64292;BME280;50628;51.008;13.658;2023-07-31T14:16:39;99015.03;;;23.36;73.12
64292;BME280;50628;51.008;13.658;2023-07-31T14:21:40;99001.63;;;23.61;73.07
64292;BME280;50628;51.008;13.658;2023-07-31T14:26:44;99006.00;;;23.25;74.90
64292;BME280;50628;51.008;13.658;2023-07-31T14:31:45;98994.19;;;23.21;75.65
64292;BME280;50628;51.008;13.658;2023-07-31T14:36:47;98985.94;;;23.59;74.65
64292;BME280;50628;51.008;13.658;2023-07-31T14:41:51;98991.00;;;23.91;73.13
64292;BME280;50628;51.008;13.658;2023-07-31T14:46:52;98978.28;;;24.16;73.07
64292;BME280;50628;51.008;13.658;2023-07-31T14:51:54;98971.13;;;24.40;69.54
64292;BME280;50628;51.008;13.658;2023-07-31T14:56:58;98964.31;;;24.33;69.64
64292;BME280;50628;51.008;13.658;2023-07-31T15:01:59;98966.47;;;23.89;71.99
64292;BME280;50628;51.008;13.658;2023-07-31T15:07:01;98974.72;;;23.57;72.04
64292;BME280;50628;51.008;13.658;2023-07-31T15:12:06;98980.88;;;23.69;73.16
64292;BME280;50628;51.008;13.658;2023-07-31T15:17:08;98970.41;;;23.74;72.83
64292;BME280;50628;51.008;13.658;2023-07-31T15:22:10;98960.00;;;23.43;74.15
64292;BME280;50628;51.008;13.658;2023-07-31T15:27:13;98983.53;;;23.09;77.02
64292;BME280;50628;51.008;13.658;2023-07-31T15:32:15;98958.63;;;22.92;78.97
64292;BME280;50628;51.008;13.658;2023-07-31T15:37:18;98972.75;;;22.85;80.36
64292;BME280;50628;51.008;13.658;2023-07-31T15:42:21;98958.59;;;22.98;80.79
64292;BME280;50628;51.008;13.658;2023-07-31T15:47:23;98960.09;;;22.87;81.32
64292;BME280;50628;51.008;13.658;2023-07-31T15:52:25;98960.03;;;22.76;79.99
64292;BME280;50628;51.008;13.658;2023-07-31T15:57:28;98960.16;;;22.62;79.08
64292;BME280;50628;51.008;13.658;2023-07-31T16:02:30;98959.97;;;22.45;80.06
64292;BME280;50628;51.008;13.658;2023-07-31T16:07:32;98948.53;;;22.45;81.64
64292;BME280;50628;51.008;13.658;2023-07-31T16:12:35;98958.66;;;22.30;79.16
64292;BME280;50628;51.008;13.658;2023-07-31T16:17:37;98977.13;;;22.18;77.25
64292;BME280;50628;51.008;13.658;2023-07-31T16:22:39;98949.97;;;22.22;78.00
64292;BME280;50628;51.008;13.658;2023-07-31T16:27:43;98953.53;;;22.10;79.06
64292;BME280;50628;51.008;13.658;2023-07-31T16:32:46;98964.56;;;22.07;79.85
64292;BME280;50628;51.008;13.658;2023-07-31T16:37:49;98958.03;;;22.09;81.33
64292;BME280;50628;51.008;13.658;2023-07-31T16:42:53;98949.16;;;22.22;80.63
64292;BME280;50628;51.008;13.658;2023-07-31T16:47:55;98957.09;;;21.97;81.27
64292;BME280;50628;51.008;13.658;2023-07-31T16:52:56;98950.69;;;21.86;82.00
64292;BME280;50628;51.008;13.658;2023-07-31T16:58:00;98956.25;;;21.78;82.86
64292;BME280;50628;51.008;13.658;2023-07-31T17:03:02;98952.88;;;21.89;82.12
64292;BME280;50628;51.008;13.658;2023-07-31T17:08:05;98947.66;;;21.82;83.82
64292;BME280;50628;51.008;13.658;2023-07-31T17:13:08;98943.81;;;21.78;83.92
64292;BME280;50628;51.008;13.658;2023-07-31T17:18:10;98936.63;;;21.86;84.25
64292;BME280;50628;51.008;13.658;2023-07-31T17:23:12;98942.84;;;21.73;85.33
64292;BME280;50628;51.008;13.658;2023-07-31T17:28:15;98934.09;;;21.72;85.95
64292;BME280;50628;51.008;13.658;2023-07-31T17:33:17;98918.78;;;21.74;86.78
64292;BME280;50628;51.008;13.658;2023-07-31T17:38:19;98910.41;;;21.77;86.75
64292;BME280;50628;51.008;13.658;2023-07-31T17:43:22;98897.97;;;21.78;87.19
64292;BME280;50628;51.008;13.658;2023-07-31T17:48:24;98909.06;;;21.68;88.58
64292;BME280;50628;51.008;13.658;2023-07-31T17:53:26;98901.91;;;21.69;89.63
64292;BME280;50628;51.008;13.658;2023-07-31T17:58:29;98890.72;;;21.67;90.22
64292;BME280;50628;51.008;13.658;2023-07-31T18:03:31;98900.94;;;21.63;91.29
64292;BME280;50628;51.008;13.658;2023-07-31T18:08:33;98909.34;;;21.60;92.78
64292;BME280;50628;51.008;13.658;2023-07-31T18:13:37;98903.63;;;21.56;93.94
64292;BME280;50628;51.008;13.658;2023-07-31T18:18:39;98899.22;;;21.50;96.75
64292;BME280;50628;51.008;13.658;2023-07-31T18:23:40;98894.34;;;21.47;97.05
64292;BME280;50628;51.008;13.658;2023-07-31T18:28:44;98889.31;;;21.39;99.79
64292;BME280;50628;51.008;13.658;2023-07-31T18:33:46;98887.50;;;21.33;100.00
64292;BME280;50628;51.008;13.658;2023-07-31T18:38:48;98885.69;;;21.27;100.00
64292;BME280;50628;51.008;13.658;2023-07-31T18:43:51;98893.53;;;21.15;100.00
64292;BME280;50628;51.008;13.658;2023-07-31T18:48:53;98889.84;;;21.16;100.00
64292;BME280;50628;51.008;13.658;2023-07-31T18:53:56;98897.00;;;21.09;100.00
64292;BME280;50628;51.008;13.658;2023-07-31T18:58:59;98893.53;;;21.08;100.00
64292;BME280;50628;51.008;13.658;2023-07-31T19:04:02;98879.94;;;21.05;100.00
64292;BME280;50628;51.008;13.658;2023-07-31T19:09:05;98876.88;;;21.01;100.00
64292;BME280;50628;51.008;13.658;2023-07-31T19:14:10;98870.25;;;20.92;100.00
64292;BME280;50628;51.008;13.658;2023-07-31T19:19:13;98863.75;;;20.88;100.00
64292;BME280;50628;51.008;13.658;2023-07-31T19:24:15;98870.09;;;20.80;100.00
64292;BME280;50628;51.008;13.658;2023-07-31T19:29:19;98866.03;;;20.78;100.00
64292;BME280;50628;51.008;13.658;2023-07-31T19:34:20;98855.91;;;20.74;100.00
64292;BME280;50628;51.008;13.658;2023-07-31T19:39:23;98852.03;;;20.70;100.00
64292;BME280;50628;51.008;13.658;2023-07-31T19:44:29;98851.22;;;20.70;100.00
64292;BME280;50628;51.008;13.658;2023-07-31T19:49:52;98839.09;;;20.56;100.00
64292;BME280;50628;51.008;13.658;2023-07-31T19:55:05;98839.09;;;20.56;100.00
64292;BME280;50628;51.008;13.658;2023-07-31T20:00:26;98827.28;;;20.58;100.00
64292;BME280;50628;51.008;13.658;2023-07-31T20:05:31;98827.50;;;20.50;100.00
64292;BME280;50628;51.008;13.658;2023-07-31T20:10:43;98813.91;;;20.46;100.00
64292;BME280;50628;51.008;13.658;2023-07-31T20:15:50;98803.97;;;20.42;100.00
64292;BME280;50628;51.008;13.658;2023-07-31T20:20:52;98805.22;;;20.32;100.00
64292;BME280;50628;51.008;13.658;2023-07-31T20:25:54;98794.88;;;20.24;100.00
64292;BME280;50628;51.008;13.658;2023-07-31T20:30:57;98788.81;;;20.17;100.00
64292;BME280;50628;51.008;13.658;2023-07-31T20:35:59;98778.63;;;20.21;100.00
64292;BME280;50628;51.008;13.658;2023-07-31T20:41:06;98768.28;;;20.19;100.00
64292;BME280;50628;51.008;13.658;2023-07-31T20:46:10;98765.63;;;20.19;100.00
64292;BME280;50628;51.008;13.658;2023-07-31T20:51:11;98764.19;;;20.23;100.00
64292;BME280;50628;51.008;13.658;2023-07-31T20:56:13;98759.75;;;20.17;100.00
64292;BME280;50628;51.008;13.658;2023-07-31T21:01:17;98737.41;;;20.13;100.00
64292;BME280;50628;51.008;13.658;2023-07-31T21:06:18;98730.69;;;20.10;100.00
64292;BME280;50628;51.008;13.658;2023-07-31T21:11:21;98722.56;;;20.12;100.00
64292;BME280;50628;51.008;13.658;2023-07-31T21:16:24;98725.41;;;20.10;100.00
64292;BME280;50628;51.008;13.658;2023-07-31T21:21:26;98716.69;;;20.10;100.00
64292;BME280;50628;51.008;13.658;2023-07-31T21:26:28;98707.78;;;20.04;100.00
64292;BME280;50628;51.008;13.658;2023-07-31T21:31:31;98704.34;;;20.04;100.00
64292;BME280;50628;51.008;13.658;2023-07-31T21:36:33;98703.09;;;20.06;100.00
64292;BME280;50628;51.008;13.658;2023-07-31T21:41:35;98700.88;;;20.03;100.00
64292;BME280;50628;51.008;13.658;2023-07-31T21:46:38;98686.84;;;20.03;100.00
64292;BME280;50628;51.008;13.658;2023-07-31T21:51:40;98689.72;;;20.01;100.00
64292;BME280;50628;51.008;13.658;2023-07-31T21:56:42;98696.19;;;20.05;100.00
64292;BME280;50628;51.008;13.658;2023-07-31T22:01:45;98685.63;;;20.05;100.00
64292;BME280;50628;51.008;13.658;2023-07-31T22:06:47;98674.00;;;20.13;100.00
64292;BME280;50628;51.008;13.658;2023-07-31T22:11:49;98670.59;;;20.06;100.00
64292;BME280;50628;51.008;13.658;2023-07-31T22:16:53;98667.56;;;20.02;100.00
64292;BME280;50628;51.008;13.658;2023-07-31T22:21:55;98670.59;;;20.06;100.00
64292;BME280;50628;51.008;13.658;2023-07-31T22:26:57;98670.97;;;20.09;100.00
64292;BME280;50628;51.008;13.658;2023-07-31T22:32:00;98670.03;;;19.97;100.00
64292;BME280;50628;51.008;13.658;2023-07-31T22:37:02;98671.84;;;19.97;100.00
64292;BME280;50628;51.008;13.658;2023-07-31T22:42:05;98662.97;;;19.84;100.00
64292;BME280;50628;51.008;13.658;2023-07-31T22:47:08;98668.31;;;19.71;100.00
64292;BME280;50628;51.008;13.658;2023-07-31T22:52:10;98655.38;;;19.43;100.00
64292;BME280;50628;51.008;13.658;2023-07-31T22:57:12;98647.91;;;19.20;100.00
64292;BME280;50628;51.008;13.658;2023-07-31T23:02:15;98642.66;;;19.13;100.00
64292;BME280;50628;51.008;13.658;2023-07-31T23:07:17;98632.94;;;19.00;100.00
64292;BME280;50628;51.008;13.658;2023-07-31T23:12:18;98627.88;;;18.92;100.00
64292;BME280;50628;51.008;13.658;2023-07-31T23:17:22;98631.13;;;18.81;100.00
64292;BME280;50628;51.008;13.658;2023-07-31T23:22:23;98622.78;;;18.71;100.00
64292;BME280;50628;51.008;13.658;2023-07-31T23:27:25;98611.44;;;18.57;100.00
64292;BME280;50628;51.008;13.658;2023-07-31T23:32:29;98613.69;;;18.40;100.00
64292;BME280;50628;51.008;13.658;2023-07-31T23:37:30;98606.56;;;18.34;100.00
64292;BME280;50628;51.008;13.658;2023-07-31T23:42:32;98586.50;;;18.33;100.00
64292;BME280;50628;51.008;13.658;2023-07-31T23:47:35;98594.41;;;18.33;100.00
64292;BME280;50628;51.008;13.658;2023-07-31T23:52:38;98591.38;;;18.23;100.00
64292;BME280;50628;51.008;13.658;2023-07-31T23:57:40;98584.25;;;18.16;100.00
